Airfield :
LOGIN :

Register | Disclaimer

   EN    FR    IT 

 










Legend :    VFR   Marginal VFR   IFR   Intensive IFR   Very Intensive IFR
Visi :
Ceiling :
>= 8 km
>= 3000ft
5 to 8 km
1000 to 3000 ft
1500m to 5 km
500 to 1000 ft
800 to 1500m
200 to 500 ft
< 800m
< 200 ft
Symbols :   Thunderstorms  Fog  Heavy snow  Heavy precipitations  Wind > 20 kt
SIGMETs :     Misc.  Thunderstorms  Icing  Turbulence  Mountain Waves  Volcanic Ashes







- Airport Elevation : 665 ft
- IATA code : NOC


EIKN - Connaught / Knock- Ireland West

CURRENT METAR :
  • 262000Z 15018G28KT 120V180 9999 BKN012 BKN040 BKN120 12/11 Q1013 NOSIG

EXPIRED METARs :
  • 261930Z 15017G28KT 110V190 9999 SCT012 BKN040 BKN120 12/11 Q1013 NOSIG
  • 261900Z 14018KT 110V180 9999 FEW017 SCT040 BKN120 13/11 Q1013 NOSIG

TAF TAF EIKN
Valid from the 26 at 18:00 until the 27 at 18:00 UTC


261700Z 2618/2718 15018G30KT 9999 SCT012 BKN025
TEMPO 2618/2620 BKN010
BECMG 2621/2623 5000 -RADZ SCT005 BKN008
TEMPO 2700/2705 2000 BKN002
TEMPO 2705/2716 1500 RADZ BKN003
BECMG 2709/2712 14015G25KT
BECMG 2716/2718 23007KT 9999 NSW BKN012
No reported NOTAMs for that airfield.



MET'MAP, your aeronautical weather chart ! - Copyright ORBIFLY December 2007 - Disclaimer

ORBIFLY MET'MAP TEAM :

Programming & Development : Alexandra Zaïnal
Concept & Development : Baudouin d'Aumeries
Co-Development & Prog : Marc-Olivier Méhu
Technical & hardware support : Manuel Goepfert

Contact : metmap@orbifly.com




SOURCES & CREDITS :

   NOAA